Time;durP1;ratioP1;P1;durP2;ratioP2;P2;SDS_P1;SDS_P2;PMS_P1;PMS_P2;Temp;Humidity;BMP_temperature;BMP_pressure;BME280_temperature;BME280_humidity;BME280_pressure;Samples;Min_cycle;Max_cycle;Signal;HPM_P1;HPM_P2
2022/01/30 00:00:06;;;;;;;16.13;7.90;;;15.00;84.70;;;;;;1959616;29;20177;-75
2022/01/30 00:01:04;;;;;;;13.65;6.32;;;15.10;85.00;;;;;;1959563;29;20169;-76
2022/01/30 00:02:04;;;;;;;14.40;6.70;;;15.10;85.00;;;;;;1959472;29;20173;-76
2022/01/30 00:03:03;;;;;;;11.63;6.13;;;15.10;84.80;;;;;;1959402;29;20329;-75
2022/01/30 00:04:01;;;;;;;11.57;6.57;;;15.10;84.80;;;;;;1959423;29;20177;-75
2022/01/30 00:05:00;;;;;;;16.33;6.37;;;15.10;84.80;;;;;;1959482;29;20173;-76
2022/01/30 00:05:58;;;;;;;12.97;6.17;;;15.10;85.00;;;;;;1959444;29;20212;-75
2022/01/30 00:06:57;;;;;;;10.97;5.33;;;15.10;85.00;;;;;;1959436;29;20257;-77
2022/01/30 00:07:55;;;;;;;13.07;5.50;;;15.10;84.90;;;;;;1959489;29;20537;-75
2022/01/30 00:08:54;;;;;;;11.30;6.47;;;15.10;84.90;;;;;;1959509;29;20601;-75
2022/01/30 00:09:52;;;;;;;11.90;6.00;;;15.20;84.90;;;;;;1959327;29;20256;-76
2022/01/30 00:10:57;;;;;;;14.47;6.73;;;15.10;84.70;;;;;;1959452;29;20178;-77
2022/01/30 00:12:00;;;;;;;14.85;6.78;;;15.10;85.00;;;;;;1959427;29;20169;-75
2022/01/30 00:13:00;;;;;;;14.10;6.28;;;15.10;84.80;;;;;;1966139;29;20179;-76
2022/01/30 00:14:01;;;;;;;10.38;5.45;;;15.10;84.90;;;;;;1966211;29;20171;-75
2022/01/30 00:15:00;;;;;;;14.48;6.40;;;15.10;85.00;;;;;;1958620;29;20185;-74
2022/01/30 00:16:03;;;;;;;14.90;6.63;;;15.10;84.90;;;;;;1958872;29;20177;-76
2022/01/30 00:17:10;;;;;;;14.00;6.60;;;15.10;84.80;;;;;;1958762;29;20640;-77
2022/01/30 00:19:35;;;;;;;15.27;7.13;;;15.10;84.90;;;;;;1959188;29;20244;-75
2022/01/30 00:20:35;;;;;;;14.48;6.13;;;15.10;85.60;;;;;;1959422;29;20301;-76
2022/01/30 00:21:39;;;;;;;11.98;6.03;;;15.20;85.00;;;;;;1959396;29;20717;-75
2022/01/30 00:24:14;;;;;;;12.57;6.32;;;15.10;85.00;;;;;;1944126;29;20677;-76
2022/01/30 00:25:16;;;;;;;13.25;6.40;;;15.10;85.00;;;;;;1959346;29;20190;-75
2022/01/30 00:26:17;;;;;;;13.05;6.30;;;15.00;84.90;;;;;;1959154;29;20235;-75
2022/01/30 00:27:20;;;;;;;18.33;6.07;;;15.10;85.10;;;;;;1959308;29;20173;-76
2022/01/30 00:28:21;;;;;;;20.25;7.15;;;15.10;85.10;;;;;;1959397;29;20173;-76
2022/01/30 00:29:19;;;;;;;14.25;6.88;;;15.10;84.90;;;;;;1959244;29;20176;-76
2022/01/30 00:30:18;;;;;;;15.13;6.70;;;15.10;85.00;;;;;;1959215;29;20234;-76
2022/01/30 00:31:19;;;;;;;10.18;6.10;;;15.10;85.00;;;;;;1959253;29;20177;-75
2022/01/30 00:32:18;;;;;;;16.80;6.50;;;15.10;85.00;;;;;;1958551;29;20197;-75
2022/01/30 00:33:17;;;;;;;14.30;7.20;;;15.10;85.00;;;;;;1958625;29;20228;-75
2022/01/30 00:34:15;;;;;;;13.73;6.70;;;15.20;85.00;;;;;;1959061;29;20273;-76
2022/01/30 00:35:14;;;;;;;16.80;6.57;;;15.10;85.00;;;;;;1959218;29;20173;-75
2022/01/30 00:36:13;;;;;;;14.67;6.40;;;15.10;85.00;;;;;;1959139;29;20641;-75
2022/01/30 00:37:11;;;;;;;14.10;6.97;;;15.10;85.00;;;;;;1959238;29;20245;-76
2022/01/30 00:38:15;;;;;;;14.27;6.27;;;15.10;85.00;;;;;;1959182;29;20209;-76
2022/01/30 00:39:14;;;;;;;17.20;6.47;;;15.00;84.90;;;;;;1959284;29;20244;-76
2022/01/30 00:40:12;;;;;;;15.97;6.20;;;15.10;85.00;;;;;;1959367;29;20189;-77
2022/01/30 00:41:11;;;;;;;14.40;6.40;;;15.10;85.00;;;;;;1959131;29;20252;-76
2022/01/30 00:42:10;;;;;;;14.57;7.07;;;15.10;85.00;;;;;;1959215;29;20181;-75
2022/01/30 00:43:09;;;;;;;12.60;5.67;;;15.10;84.90;;;;;;1959061;29;20205;-75
2022/01/30 00:44:07;;;;;;;11.93;6.47;;;15.10;85.00;;;;;;1959102;29;20200;-75
2022/01/30 00:45:07;;;;;;;14.60;6.50;;;15.10;85.00;;;;;;1959105;29;20189;-75
2022/01/30 00:46:07;;;;;;;14.43;6.80;;;15.10;85.00;;;;;;1959071;29;20248;-75
2022/01/30 00:47:08;;;;;;;11.45;6.47;;;15.10;84.90;;;;;;1959136;29;20192;-75
2022/01/30 00:48:07;;;;;;;14.13;6.95;;;15.00;85.00;;;;;;1959116;29;20169;-76
2022/01/30 00:49:06;;;;;;;10.65;5.28;;;15.00;85.00;;;;;;1959146;29;20189;-76
2022/01/30 00:50:05;;;;;;;12.23;5.80;;;15.10;85.00;;;;;;1959291;29;20197;-75
2022/01/30 00:51:04;;;;;;;12.55;6.13;;;15.00;84.90;;;;;;1959030;29;20181;-75
2022/01/30 00:52:02;;;;;;;17.40;6.27;;;15.10;85.00;;;;;;1959356;29;20266;-76
2022/01/30 00:53:01;;;;;;;9.87;5.57;;;15.10;85.00;;;;;;1959010;29;20189;-76
2022/01/30 00:54:00;;;;;;;10.60;5.57;;;15.10;85.00;;;;;;1959057;29;20239;-75
2022/01/30 00:54:58;;;;;;;13.10;6.50;;;15.10;84.90;;;;;;1959048;29;20177;-75
2022/01/30 00:55:57;;;;;;;12.07;6.40;;;15.10;85.00;;;;;;1959126;29;20173;-76
2022/01/30 00:56:55;;;;;;;18.77;6.60;;;15.10;84.90;;;;;;1959032;29;20621;-75
2022/01/30 00:57:55;;;;;;;9.27;6.03;;;15.10;85.00;;;;;;1958383;29;20264;-75
2022/01/30 00:58:53;;;;;;;11.90;5.90;;;15.00;84.90;;;;;;1958342;29;20238;-75
2022/01/30 00:59:52;;;;;;;15.23;5.77;;;15.00;84.80;;;;;;1958958;29;20185;-76
2022/01/30 01:00:50;;;;;;;13.47;5.57;;;15.00;84.90;;;;;;1959087;29;20536;-76
2022/01/30 01:01:49;;;;;;;13.37;6.20;;;15.10;85.00;;;;;;1959070;29;20185;-75
2022/01/30 01:02:47;;;;;;;13.13;6.10;;;15.10;85.00;;;;;;1958997;29;20246;-76
2022/01/30 01:03:46;;;;;;;15.97;7.00;;;15.00;84.80;;;;;;1959191;29;20180;-76
2022/01/30 01:04:45;;;;;;;15.20;5.73;;;15.00;84.90;;;;;;1959093;29;20262;-76
2022/01/30 01:05:44;;;;;;;15.30;7.40;;;15.00;84.90;;;;;;1959195;29;20203;-76
2022/01/30 01:06:48;;;;;;;15.50;6.28;;;15.10;85.10;;;;;;1959309;29;20252;-75
2022/01/30 01:07:48;;;;;;;14.68;6.93;;;15.00;84.90;;;;;;1959341;29;20173;-76
2022/01/30 01:08:51;;;;;;;14.45;5.60;;;15.00;84.90;;;;;;1959494;29;20177;-76
2022/01/30 01:10:07;;;;;;;10.10;5.30;;;15.00;84.90;;;;;;1959192;29;20177;-76
2022/01/30 01:23:30;;;;;;;13.32;5.40;;;15.00;85.10;;;;;;1958817;29;20200;-75
2022/01/30 01:24:28;;;;;;;17.00;6.10;;;15.00;85.00;;;;;;1959004;29;20165;-76
2022/01/30 01:25:27;;;;;;;15.33;5.50;;;15.00;85.00;;;;;;1958933;29;20261;-76
2022/01/30 01:26:26;;;;;;;16.73;7.17;;;15.00;85.00;;;;;;1958846;29;20537;-75
2022/01/30 01:27:24;;;;;;;15.67;6.70;;;15.00;84.90;;;;;;1958970;29;20169;-76
2022/01/30 01:28:24;;;;;;;11.83;5.83;;;15.00;84.90;;;;;;1958856;29;20473;-75
2022/01/30 01:29:23;;;;;;;11.77;5.68;;;15.10;85.00;;;;;;1958158;29;20177;-75
2022/01/30 01:30:21;;;;;;;12.90;6.03;;;15.00;84.90;;;;;;1958191;29;20236;-75
2022/01/30 01:31:21;;;;;;;14.37;5.87;;;15.00;84.90;;;;;;1957261;29;20173;-75
2022/01/30 01:32:20;;;;;;;11.32;5.13;;;15.00;84.80;;;;;;1958339;29;20213;-75
2022/01/30 01:33:19;;;;;;;10.23;5.20;;;15.00;84.80;;;;;;1958690;29;20232;-75
2022/01/30 01:35:29;;;;;;;12.38;5.80;;;15.10;85.00;;;;;;1958913;29;20172;-75
2022/01/30 01:36:28;;;;;;;13.30;5.73;;;15.00;84.80;;;;;;1958689;29;20184;-75
2022/01/30 01:37:26;;;;;;;13.33;6.00;;;15.00;84.90;;;;;;1958913;29;20185;-75
2022/01/30 01:38:25;;;;;;;12.37;6.07;;;15.00;85.00;;;;;;1958779;29;20426;-75
2022/01/30 01:39:23;;;;;;;19.30;5.80;;;15.10;85.00;;;;;;1958832;29;20177;-76
2022/01/30 01:40:22;;;;;;;16.93;5.60;;;15.00;84.90;;;;;;1958847;29;20181;-75
2022/01/30 01:41:22;;;;;;;10.63;5.37;;;15.00;84.90;;;;;;1959017;29;20256;-75
2022/01/30 01:42:21;;;;;;;12.32;5.80;;;15.00;84.90;;;;;;1958861;29;20200;-75
2022/01/30 01:43:23;;;;;;;11.77;5.47;;;15.00;84.90;;;;;;1958765;29;20272;-75
2022/01/30 01:44:34;;;;;;;14.40;5.68;;;15.00;84.90;;;;;;1958903;29;20181;-75
2022/01/30 01:45:37;;;;;;;14.90;6.38;;;15.00;84.90;;;;;;1959198;29;20177;-75
2022/01/30 01:46:35;;;;;;;10.35;5.75;;;15.00;84.90;;;;;;1957985;29;20225;-75
2022/01/30 01:47:34;;;;;;;11.50;6.10;;;15.00;84.80;;;;;;1958439;29;20189;-75
2022/01/30 01:48:35;;;;;;;15.20;6.53;;;15.00;84.90;;;;;;1958791;29;20264;-75
2022/01/30 01:49:34;;;;;;;13.90;6.03;;;15.00;84.90;;;;;;1958151;29;20697;-75
2022/01/30 01:50:39;;;;;;;10.77;5.38;;;15.00;84.90;;;;;;1958395;29;20188;-75
2022/01/30 01:51:37;;;;;;;12.05;5.90;;;15.00;84.80;;;;;;1959105;29;20158;-76
2022/01/30 01:52:36;;;;;;;12.30;5.77;;;15.00;84.90;;;;;;1958965;29;20631;-75
2022/01/30 01:53:35;;;;;;;13.70;6.00;;;15.00;84.90;;;;;;1958587;29;20196;-75
2022/01/30 01:54:34;;;;;;;13.27;5.67;;;15.00;84.90;;;;;;1958627;29;20197;-75
2022/01/30 01:55:33;;;;;;;13.68;5.63;;;15.00;84.90;;;;;;1958591;29;20228;-76
2022/01/30 01:56:31;;;;;;;10.73;5.30;;;15.00;84.80;;;;;;1958654;29;20189;-75
2022/01/30 01:57:30;;;;;;;9.50;4.80;;;15.00;84.90;;;;;;1958552;29;20690;-75
2022/01/30 01:58:29;;;;;;;14.43;5.97;;;15.00;84.90;;;;;;1957873;29;20193;-75
2022/01/30 01:59:27;;;;;;;13.90;5.07;;;15.00;84.90;;;;;;1958170;29;20229;-76
2022/01/30 02:00:26;;;;;;;11.47;5.53;;;15.00;84.90;;;;;;1958457;29;20761;-74
2022/01/30 02:01:26;;;;;;;14.83;6.20;;;15.00;84.90;;;;;;1958508;29;20645;-76
2022/01/30 02:02:26;;;;;;;14.02;6.18;;;15.00;84.90;;;;;;1958655;29;20185;-75
2022/01/30 02:03:24;;;;;;;12.15;5.70;;;15.00;84.90;;;;;;1958495;29;20201;-75
2022/01/30 02:04:23;;;;;;;11.73;5.67;;;15.00;84.90;;;;;;1958571;29;20225;-75
2022/01/30 02:05:23;;;;;;;15.17;5.10;;;15.00;84.90;;;;;;1958527;29;20177;-75
2022/01/30 02:06:23;;;;;;;14.98;6.20;;;15.00;84.80;;;;;;1958573;29;20224;-76
2022/01/30 02:08:46;;;;;;;22.55;6.25;;;15.00;85.00;;;;;;1958630;29;20162;-75
2022/01/30 02:09:45;;;;;;;14.00;5.55;;;15.00;84.80;;;;;;1958763;29;20164;-76
2022/01/30 02:10:56;;;;;;;16.03;5.43;;;15.00;84.90;;;;;;1958627;29;20652;-76
2022/01/30 02:11:55;;;;;;;12.20;5.47;;;15.00;84.90;;;;;;1958695;29;20149;-76
2022/01/30 02:12:56;;;;;;;11.13;5.40;;;15.00;85.00;;;;;;1958579;29;20671;-75
2022/01/30 02:15:31;;;;;;;12.93;5.30;;;15.00;85.00;;;;;;1958148;29;20158;-75
2022/01/30 02:24:45;;;;;;;11.20;5.05;;;15.00;84.90;;;;;;1958602;29;20165;-75
2022/01/30 02:25:49;;;;;;;11.02;5.78;;;15.00;85.00;;;;;;1958546;29;20222;-75
2022/01/30 02:26:48;;;;;;;11.35;5.60;;;15.00;85.00;;;;;;1958574;29;20161;-75
2022/01/30 02:27:47;;;;;;;13.20;5.53;;;15.00;85.00;;;;;;1958484;29;20184;-75
2022/01/30 02:28:45;;;;;;;14.55;4.80;;;15.00;84.90;;;;;;1958507;29;20185;-75
2022/01/30 02:29:44;;;;;;;9.60;4.30;;;15.00;84.90;;;;;;1958439;29;20184;-75
2022/01/30 02:30:52;;;;;;;9.97;5.37;;;14.90;84.80;;;;;;1958360;29;20177;-76
2022/01/30 02:31:50;;;;;;;12.02;5.70;;;15.00;85.00;;;;;;1958512;29;20157;-75
2022/01/30 02:32:50;;;;;;;11.27;4.33;;;15.00;84.90;;;;;;1958505;29;20177;-76
2022/01/30 02:33:49;;;;;;;11.73;5.25;;;15.00;84.80;;;;;;1958314;29;20398;-76
2022/01/30 02:34:47;;;;;;;14.13;5.40;;;14.90;84.80;;;;;;1958397;29;20260;-76
2022/01/30 02:35:45;;;;;;;14.47;5.37;;;15.00;84.90;;;;;;1958527;29;20169;-75
2022/01/30 02:36:49;;;;;;;8.93;5.47;;;15.00;84.80;;;;;;1958572;29;20181;-76
2022/01/30 02:37:51;;;;;;;17.30;6.40;;;15.00;84.90;;;;;;1958516;29;20181;-76
2022/01/30 02:38:50;;;;;;;12.07;5.50;;;15.00;84.90;;;;;;1958361;29;20264;-75
2022/01/30 02:39:48;;;;;;;8.57;5.00;;;15.00;84.90;;;;;;1958482;29;20192;-75
2022/01/30 02:40:49;;;;;;;10.87;5.37;;;15.00;84.90;;;;;;1958313;29;20180;-75
2022/01/30 02:41:48;;;;;;;12.57;5.18;;;15.00;84.90;;;;;;1958514;29;20169;-75
2022/01/30 02:42:50;;;;;;;9.60;5.22;;;15.00;84.90;;;;;;1957405;29;20189;-76
2022/01/30 02:44:05;;;;;;;9.07;4.57;;;15.00;84.90;;;;;;1958321;29;20177;-76
2022/01/30 02:45:07;;;;;;;12.20;5.13;;;15.00;84.80;;;;;;1958522;29;20157;-75
2022/01/30 02:46:22;;;;;;;15.27;5.30;;;15.00;84.90;;;;;;1958215;29;20261;-75
2022/01/30 02:47:25;;;;;;;11.57;5.13;;;15.00;84.80;;;;;;1958421;29;20168;-74
2022/01/30 02:48:31;;;;;;;15.88;6.28;;;14.90;84.60;;;;;;1958315;29;20243;-75
2022/01/30 02:50:54;;;;;;;11.27;4.75;;;15.00;84.80;;;;;;1942507;29;20186;-76
2022/01/30 02:51:58;;;;;;;11.35;5.05;;;14.90;84.80;;;;;;1955918;29;20185;-76
2022/01/30 02:52:57;;;;;;;7.63;4.20;;;15.00;84.90;;;;;;1958422;29;20240;-75
2022/01/30 02:54:03;;;;;;;10.90;5.50;;;14.90;84.70;;;;;;1958372;29;20177;-75
2022/01/30 02:55:03;;;;;;;10.35;4.57;;;14.90;84.90;;;;;;1958538;29;20228;-75
2022/01/30 02:56:01;;;;;;;11.73;5.30;;;15.00;84.80;;;;;;1958234;29;20212;-75
2022/01/30 02:57:00;;;;;;;13.70;5.40;;;14.90;84.80;;;;;;1958336;29;20232;-75
2022/01/30 02:57:59;;;;;;;8.70;5.33;;;14.90;84.60;;;;;;1958406;29;20188;-75
2022/01/30 02:58:57;;;;;;;18.27;5.20;;;15.00;84.60;;;;;;1958416;29;20177;-75
2022/01/30 02:59:56;;;;;;;13.30;5.07;;;14.90;84.70;;;;;;1958317;29;20405;-75
2022/01/30 03:00:54;;;;;;;14.83;4.93;;;14.90;84.70;;;;;;1958389;29;20647;-75
2022/01/30 03:01:53;;;;;;;9.50;4.93;;;15.00;84.70;;;;;;1957633;29;20213;-76
2022/01/30 03:02:52;;;;;;;11.20;4.90;;;14.90;84.50;;;;;;1957832;29;20173;-75
2022/01/30 03:03:50;;;;;;;10.67;5.30;;;15.00;85.40;;;;;;1958328;29;20262;-75
2022/01/30 03:04:48;;;;;;;9.10;4.40;;;14.90;84.50;;;;;;1958269;29;20177;-75
2022/01/30 03:05:47;;;;;;;10.63;4.20;;;15.00;84.60;;;;;;1958337;29;20304;-75
2022/01/30 03:06:47;;;;;;;11.70;5.57;;;15.00;84.50;;;;;;1957903;29;20212;-74
2022/01/30 03:07:45;;;;;;;13.13;4.50;;;15.00;84.60;;;;;;1957802;29;20221;-76
2022/01/30 03:08:44;;;;;;;9.80;5.33;;;15.00;84.50;;;;;;1957692;29;20189;-74
2022/01/30 03:09:42;;;;;;;10.27;5.57;;;15.00;84.50;;;;;;1957757;29;20181;-75
2022/01/30 03:10:41;;;;;;;8.83;4.10;;;15.00;84.60;;;;;;1958181;29;20539;-74
2022/01/30 03:11:39;;;;;;;10.43;5.00;;;15.00;84.70;;;;;;1958312;29;20197;-75
2022/01/30 03:12:38;;;;;;;13.80;4.40;;;15.10;84.80;;;;;;1958322;29;20229;-75
2022/01/30 03:13:36;;;;;;;9.93;4.47;;;15.00;84.50;;;;;;1958233;29;20241;-75
2022/01/30 03:14:35;;;;;;;8.30;4.40;;;15.00;84.70;;;;;;1958269;29;20546;-75
2022/01/30 03:15:35;;;;;;;8.13;4.37;;;15.00;84.60;;;;;;1958268;29;20636;-75
2022/01/30 03:16:33;;;;;;;12.20;5.15;;;15.00;84.60;;;;;;1958358;29;20177;-74
2022/01/30 03:17:32;;;;;;;9.40;4.70;;;15.10;84.70;;;;;;1958447;29;20185;-76
2022/01/30 03:18:31;;;;;;;9.80;5.30;;;15.00;84.40;;;;;;1958248;29;20542;-74
2022/01/30 03:19:29;;;;;;;12.52;4.93;;;15.00;84.70;;;;;;1958193;29;20241;-76
2022/01/30 03:20:28;;;;;;;11.50;5.03;;;15.00;84.70;;;;;;1958327;29;20180;-76
2022/01/30 03:21:27;;;;;;;15.27;5.73;;;15.10;84.50;;;;;;1958393;29;20199;-75
2022/01/30 03:22:26;;;;;;;10.23;4.30;;;15.10;84.50;;;;;;1958363;29;20242;-76
2022/01/30 03:23:25;;;;;;;10.10;4.70;;;15.10;84.70;;;;;;1958300;29;20213;-75
2022/01/30 03:24:24;;;;;;;12.38;4.25;;;15.10;84.80;;;;;;1958198;29;20185;-75
2022/01/30 03:25:22;;;;;;;10.30;5.10;;;15.10;84.80;;;;;;1958228;29;20178;-75
2022/01/30 03:26:21;;;;;;;7.33;4.20;;;15.10;84.90;;;;;;1958121;29;20236;-74
2022/01/30 03:27:19;;;;;;;18.03;5.00;;;15.10;84.90;;;;;;1958316;29;20181;-75
2022/01/30 03:28:18;;;;;;;12.23;4.60;;;15.20;84.80;;;;;;1958221;29;20177;-75
2022/01/30 03:29:16;;;;;;;13.37;4.60;;;15.20;85.00;;;;;;1957562;29;20206;-76
2022/01/30 03:30:19;;;;;;;13.37;5.00;;;15.20;84.90;;;;;;1957897;29;20268;-76
2022/01/30 03:31:19;;;;;;;8.25;4.43;;;15.20;84.80;;;;;;1958198;29;20169;-76
2022/01/30 03:32:18;;;;;;;11.85;4.55;;;15.20;84.90;;;;;;1957547;29;20245;-76
2022/01/30 03:33:16;;;;;;;11.30;4.60;;;15.20;84.90;;;;;;1957761;29;20201;-76
2022/01/30 03:34:15;;;;;;;10.87;4.63;;;15.20;85.00;;;;;;1958023;29;20264;-75
2022/01/30 03:35:13;;;;;;;9.00;3.60;;;15.20;84.80;;;;;;1958195;29;20597;-75
2022/01/30 03:36:12;;;;;;;13.20;4.73;;;15.20;84.70;;;;;;1958162;29;20653;-75
2022/01/30 03:37:10;;;;;;;10.23;4.43;;;15.20;84.70;;;;;;1958325;29;20189;-76
2022/01/30 03:38:09;;;;;;;10.80;4.47;;;15.20;84.80;;;;;;1958206;29;20260;-75
2022/01/30 03:39:08;;;;;;;6.30;4.10;;;15.20;84.50;;;;;;1958410;29;20181;-75
2022/01/30 03:40:07;;;;;;;8.47;4.10;;;15.20;84.70;;;;;;1958238;29;20417;-75
2022/01/30 03:41:05;;;;;;;7.93;4.65;;;15.20;84.70;;;;;;1958402;29;20272;-75
2022/01/30 03:42:04;;;;;;;8.80;4.17;;;15.30;84.80;;;;;;1958172;29;20186;-75
2022/01/30 03:43:04;;;;;;;10.45;5.22;;;15.20;84.70;;;;;;1958164;29;20216;-75
2022/01/30 03:44:03;;;;;;;7.95;4.03;;;15.30;84.80;;;;;;1958171;29;20192;-75
2022/01/30 03:45:02;;;;;;;8.70;4.10;;;15.30;84.70;;;;;;1958267;29;20529;-75
2022/01/30 03:46:01;;;;;;;9.82;4.45;;;15.30;84.70;;;;;;1958175;29;20184;-75
2022/01/30 03:46:59;;;;;;;13.50;4.57;;;15.30;85.20;;;;;;1958224;29;20264;-75
2022/01/30 03:47:58;;;;;;;11.40;4.13;;;15.30;84.70;;;;;;1958205;29;20201;-76
2022/01/30 03:48:56;;;;;;;12.47;5.20;;;15.30;84.60;;;;;;1958321;29;20177;-76
2022/01/30 03:49:55;;;;;;;11.17;4.50;;;15.30;84.60;;;;;;1958201;29;20173;-74
2022/01/30 03:50:53;;;;;;;9.83;4.43;;;15.30;84.70;;;;;;1958448;29;20575;-75
2022/01/30 03:51:52;;;;;;;8.83;4.43;;;15.30;84.40;;;;;;1958136;29;20542;-75
2022/01/30 03:52:51;;;;;;;8.03;3.40;;;15.30;84.40;;;;;;1958060;29;20269;-75
2022/01/30 03:53:49;;;;;;;11.40;4.73;;;15.30;84.60;;;;;;1958256;29;20179;-75
2022/01/30 03:54:48;;;;;;;7.30;4.87;;;15.30;84.60;;;;;;1959107;29;20261;-74
2022/01/30 03:55:46;;;;;;;9.77;4.47;;;15.30;84.50;;;;;;1958983;29;20173;-76
2022/01/30 03:56:45;;;;;;;12.20;4.60;;;15.30;84.40;;;;;;1959510;29;20193;-75
2022/01/30 03:57:43;;;;;;;12.73;4.20;;;15.30;84.40;;;;;;1959522;29;20169;-76
2022/01/30 03:58:42;;;;;;;11.73;4.03;;;15.30;84.40;;;;;;1959503;29;20204;-75
2022/01/30 03:59:40;;;;;;;9.00;4.30;;;15.30;84.40;;;;;;1959484;29;20208;-75
2022/01/30 04:00:39;;;;;;;9.83;3.90;;;15.30;84.20;;;;;;1959578;29;20211;-75
2022/01/30 04:01:38;;;;;;;13.23;4.73;;;15.30;84.20;;;;;;1959552;29;20597;-75
2022/01/30 04:02:36;;;;;;;7.37;4.50;;;15.30;84.40;;;;;;1959488;29;20605;-75
2022/01/30 04:03:36;;;;;;;6.30;3.90;;;15.30;84.50;;;;;;1959371;29;20968;-76
2022/01/30 04:04:34;;;;;;;7.55;3.97;;;15.30;85.20;;;;;;1959484;29;20603;-75
2022/01/30 04:05:33;;;;;;;8.30;4.60;;;15.30;84.40;;;;;;1959458;29;20181;-75
2022/01/30 04:06:32;;;;;;;12.33;4.60;;;15.40;84.40;;;;;;1959382;29;20216;-76
2022/01/30 04:07:32;;;;;;;8.83;4.10;;;15.40;84.20;;;;;;1959635;29;20173;-76
2022/01/30 04:08:30;;;;;;;11.63;4.25;;;15.30;84.00;;;;;;1966347;29;20432;-76
2022/01/30 04:09:29;;;;;;;10.37;4.53;;;15.30;84.30;;;;;;1966374;29;20219;-75
2022/01/30 04:10:28;;;;;;;8.87;4.27;;;15.40;84.10;;;;;;1959758;29;20264;-76
2022/01/30 04:11:29;;;;;;;9.20;3.50;;;15.40;84.10;;;;;;1959349;29;20777;-75
2022/01/30 04:12:28;;;;;;;8.55;4.18;;;15.30;84.10;;;;;;1959326;29;20205;-75
2022/01/30 04:13:27;;;;;;;12.73;5.00;;;15.30;84.20;;;;;;1959077;29;20201;-75
2022/01/30 04:14:25;;;;;;;10.57;4.17;;;15.40;84.20;;;;;;1959338;29;20208;-75
2022/01/30 04:15:24;;;;;;;10.57;4.00;;;15.30;84.10;;;;;;1959477;29;20491;-75
2022/01/30 04:16:23;;;;;;;11.30;4.07;;;15.30;84.10;;;;;;1959268;29;20188;-77
2022/01/30 04:17:22;;;;;;;7.33;4.17;;;15.30;84.20;;;;;;1966197;29;20420;-75
2022/01/30 04:18:21;;;;;;;6.43;4.10;;;15.40;84.30;;;;;;1966372;29;20187;-75
2022/01/30 04:19:20;;;;;;;9.93;4.53;;;15.30;84.10;;;;;;1959716;29;20185;-76
2022/01/30 04:20:18;;;;;;;10.00;3.87;;;15.30;84.30;;;;;;1959243;29;20200;-75
2022/01/30 04:21:17;;;;;;;9.60;4.43;;;15.30;84.20;;;;;;1959424;29;20177;-75
2022/01/30 04:22:16;;;;;;;7.80;3.87;;;15.30;84.00;;;;;;1959306;29;20217;-76
2022/01/30 04:23:14;;;;;;;13.60;4.53;;;15.30;84.10;;;;;;1959318;29;20345;-75
2022/01/30 04:24:13;;;;;;;8.83;3.93;;;15.30;84.30;;;;;;1959319;29;20181;-75
2022/01/30 04:25:11;;;;;;;8.70;4.00;;;15.30;84.20;;;;;;1959220;29;20185;-76
2022/01/30 04:26:10;;;;;;;12.50;4.50;;;15.20;84.00;;;;;;1959131;29;20209;-75
2022/01/30 04:27:08;;;;;;;10.53;4.63;;;15.30;84.70;;;;;;1959329;29;20177;-76
2022/01/30 04:28:07;;;;;;;6.60;3.77;;;15.30;84.10;;;;;;1959247;29;20181;-75
2022/01/30 04:29:06;;;;;;;6.70;4.18;;;15.30;84.10;;;;;;1959207;29;20192;-74
2022/01/30 04:30:07;;;;;;;8.43;3.80;;;15.30;84.00;;;;;;1959167;29;20183;-75
2022/01/30 04:31:06;;;;;;;7.85;3.80;;;15.40;85.00;;;;;;1959193;29;20188;-75
2022/01/30 04:32:05;;;;;;;10.90;4.53;;;15.30;84.10;;;;;;1959201;29;20252;-75
2022/01/30 04:33:03;;;;;;;10.45;4.10;;;15.30;84.10;;;;;;1959084;29;20418;-76
2022/01/30 04:34:02;;;;;;;9.50;4.30;;;15.30;84.10;;;;;;1959023;29;20284;-75
2022/01/30 04:35:10;;;;;;;7.05;4.10;;;15.30;84.00;;;;;;1959275;29;20558;-75
2022/01/30 04:36:13;;;;;;;9.32;4.35;;;15.30;84.00;;;;;;1959238;29;20212;-75
2022/01/30 04:37:22;;;;;;;12.57;4.55;;;15.30;83.90;;;;;;1959137;29;20174;-76
2022/01/30 04:38:26;;;;;;;9.00;4.28;;;15.30;84.20;;;;;;1959237;29;20625;-75
2022/01/30 04:40:06;;;;;;;9.27;4.35;;;15.30;84.10;;;;;;1959271;29;20209;-75
2022/01/30 04:41:22;;;;;;;9.55;4.38;;;15.30;84.00;;;;;;1959053;29;20232;-77
2022/01/30 04:52:51;;;;;;;11.18;3.50;;;15.30;84.30;;;;;;1943392;29;20217;-76
2022/01/30 04:58:50;;;;;;;7.93;3.67;;;15.20;84.10;;;;;;1959188;29;20575;-76
2022/01/30 05:02:07;;;;;;;10.35;4.30;;;15.30;84.20;;;;;;1959078;29;20158;-76
2022/01/30 05:04:42;;;;;;;10.90;3.60;;;15.30;84.00;;;;;;1959153;29;20202;-74
2022/01/30 05:05:54;;;;;;;10.75;4.00;;;15.30;84.10;;;;;;1958190;29;20173;-74
2022/01/30 05:07:57;;;;;;;9.70;3.50;;;15.30;84.20;;;;;;1959174;29;20162;-76
2022/01/30 05:08:56;;;;;;;9.75;3.95;;;15.30;84.20;;;;;;1958987;29;20197;-76
2022/01/30 05:09:55;;;;;;;6.90;3.60;;;15.30;84.10;;;;;;1959015;29;20650;-75
2022/01/30 05:10:54;;;;;;;12.73;4.47;;;15.40;84.20;;;;;;1959002;29;20173;-75
2022/01/30 05:11:53;;;;;;;6.47;3.67;;;15.40;84.10;;;;;;1959173;29;20177;-75
2022/01/30 05:12:55;;;;;;;13.25;4.35;;;15.30;84.00;;;;;;1959032;29;20201;-75
2022/01/30 05:13:54;;;;;;;8.40;3.72;;;15.30;84.00;;;;;;1959029;29;20653;-76
2022/01/30 05:14:53;;;;;;;7.50;4.00;;;15.30;83.80;;;;;;1958917;29;20185;-76
2022/01/30 05:15:51;;;;;;;8.53;3.93;;;15.30;84.00;;;;;;1959001;29;20181;-75
2022/01/30 05:16:50;;;;;;;9.87;3.57;;;15.30;84.10;;;;;;1959036;29;20188;-75
2022/01/30 05:17:49;;;;;;;6.80;3.80;;;15.30;83.90;;;;;;1959004;29;20220;-75
2022/01/30 05:18:47;;;;;;;8.93;4.53;;;15.30;84.00;;;;;;1958894;29;20668;-75
2022/01/30 05:19:46;;;;;;;8.70;3.80;;;15.30;83.90;;;;;;1959134;29;20201;-75
2022/01/30 05:20:45;;;;;;;8.30;3.73;;;15.30;83.80;;;;;;1958823;29;20181;-76
2022/01/30 05:21:44;;;;;;;11.50;4.37;;;15.30;84.00;;;;;;1959029;29;20177;-75
2022/01/30 05:22:42;;;;;;;7.93;3.70;;;15.30;84.00;;;;;;1958753;29;20268;-77
2022/01/30 05:23:41;;;;;;;9.50;4.07;;;15.30;84.00;;;;;;1959015;29;20188;-75
2022/01/30 05:24:40;;;;;;;6.63;3.20;;;15.30;84.00;;;;;;1958863;29;20272;-75
2022/01/30 05:25:39;;;;;;;9.47;4.07;;;15.30;84.00;;;;;;1958901;29;20191;-75
2022/01/30 05:26:41;;;;;;;8.80;3.87;;;15.30;84.00;;;;;;1958835;29;20204;-75
2022/01/30 05:27:40;;;;;;;10.60;3.40;;;15.30;84.10;;;;;;1958919;29;20469;-76
2022/01/30 05:28:39;;;;;;;7.47;3.80;;;15.30;84.10;;;;;;1958856;29;20236;-75
2022/01/30 05:29:37;;;;;;;9.83;4.10;;;15.30;84.10;;;;;;1958866;29;20406;-75
2022/01/30 05:30:36;;;;;;;13.93;4.70;;;15.30;84.00;;;;;;1958744;29;20244;-75
2022/01/30 05:31:35;;;;;;;10.75;4.78;;;15.30;84.10;;;;;;1958652;29;20214;-74
2022/01/30 05:32:34;;;;;;;7.83;4.33;;;15.30;83.90;;;;;;1958807;29;20185;-75
2022/01/30 05:33:33;;;;;;;10.93;3.20;;;15.30;83.90;;;;;;1958491;29;20489;-75
2022/01/30 05:34:32;;;;;;;6.27;3.30;;;15.30;84.00;;;;;;1958783;29;20413;-74
2022/01/30 05:35:31;;;;;;;7.60;3.50;;;15.30;84.00;;;;;;1958799;29;20173;-76
2022/01/30 05:36:30;;;;;;;8.70;3.77;;;15.30;84.10;;;;;;1958802;29;20539;-75
2022/01/30 05:37:29;;;;;;;9.73;4.13;;;15.30;84.60;;;;;;1958756;29;20416;-75
2022/01/30 05:38:28;;;;;;;7.00;3.80;;;15.30;84.00;;;;;;1958681;29;20212;-75
2022/01/30 05:39:27;;;;;;;11.10;4.30;;;15.30;84.10;;;;;;1958677;29;20260;-76
2022/01/30 05:40:26;;;;;;;6.10;3.03;;;15.30;83.80;;;;;;1958709;29;20287;-75
2022/01/30 05:41:25;;;;;;;10.70;3.90;;;15.20;83.90;;;;;;1958817;29;20256;-75
2022/01/30 05:42:26;;;;;;;7.40;2.90;;;15.30;84.00;;;;;;1958760;29;20764;-75
2022/01/30 05:43:28;;;;;;;12.85;3.97;;;15.30;84.00;;;;;;1958660;29;20200;-76
2022/01/30 05:44:41;;;;;;;9.32;3.75;;;15.30;83.90;;;;;;1958868;29;20701;-75
2022/01/30 05:45:44;;;;;;;9.13;4.05;;;15.30;83.90;;;;;;1958836;29;20184;-76
2022/01/30 05:46:50;;;;;;;7.95;3.72;;;15.30;83.90;;;;;;1957966;29;20208;-76
2022/01/30 05:47:55;;;;;;;8.93;3.67;;;15.30;84.00;;;;;;1958131;29;20165;-76
2022/01/30 05:48:55;;;;;;;7.53;3.42;;;15.30;84.00;;;;;;1958895;29;20235;-77
2022/01/30 05:49:53;;;;;;;14.32;4.03;;;15.20;83.90;;;;;;1958826;29;20648;-75
2022/01/30 05:50:52;;;;;;;8.07;3.93;;;15.20;83.90;;;;;;1958950;29;20263;-74
2022/01/30 05:51:51;;;;;;;5.70;3.53;;;15.30;83.80;;;;;;1958976;29;20241;-76
2022/01/30 05:52:49;;;;;;;9.77;4.20;;;15.30;84.00;;;;;;1958157;29;20199;-76
2022/01/30 05:53:48;;;;;;;9.13;3.93;;;15.30;84.00;;;;;;1958120;29;20237;-75
2022/01/30 05:54:46;;;;;;;7.57;3.20;;;15.30;84.00;;;;;;1958770;29;20181;-76
2022/01/30 05:55:45;;;;;;;10.60;3.60;;;15.20;84.00;;;;;;1958688;29;20260;-76
2022/01/30 05:56:43;;;;;;;12.73;3.50;;;15.20;83.80;;;;;;1958703;29;20189;-76
2022/01/30 05:57:42;;;;;;;10.17;3.87;;;15.20;84.00;;;;;;1958568;29;20645;-76
2022/01/30 05:58:40;;;;;;;16.30;4.73;;;15.20;83.90;;;;;;1958631;29;20185;-76